sensor_id;sensor_type;location;lat;lon;timestamp;temperature;humidity
46438;DHT22;32137;48.728;9.142;2023-03-19T00:02:24;12.30;99.90
46438;DHT22;32137;48.728;9.142;2023-03-19T00:04:49;12.30;99.90
46438;DHT22;32137;48.728;9.142;2023-03-19T00:07:15;12.30;99.90
46438;DHT22;32137;48.728;9.142;2023-03-19T00:09:42;12.30;99.90
46438;DHT22;32137;48.728;9.142;2023-03-19T00:12:09;12.20;99.90
46438;DHT22;32137;48.728;9.142;2023-03-19T00:14:35;12.20;99.90
46438;DHT22;32137;48.728;9.142;2023-03-19T00:17:00;12.20;99.90
46438;DHT22;32137;48.728;9.142;2023-03-19T00:19:26;12.20;99.90
46438;DHT22;32137;48.728;9.142;2023-03-19T00:21:52;12.10;99.90
46438;DHT22;32137;48.728;9.142;2023-03-19T00:24:18;12.10;99.90
46438;DHT22;32137;48.728;9.142;2023-03-19T00:26:43;12.10;99.90
46438;DHT22;32137;48.728;9.142;2023-03-19T00:29:09;12.10;99.90
46438;DHT22;32137;48.728;9.142;2023-03-19T00:31:35;12.10;99.90
46438;DHT22;32137;48.728;9.142;2023-03-19T00:34:01;12.00;99.90
46438;DHT22;32137;48.728;9.142;2023-03-19T00:36:27;12.00;99.90
46438;DHT22;32137;48.728;9.142;2023-03-19T00:38:53;12.10;99.90
46438;DHT22;32137;48.728;9.142;2023-03-19T00:41:19;12.10;99.90
46438;DHT22;32137;48.728;9.142;2023-03-19T00:43:45;12.10;99.90
46438;DHT22;32137;48.728;9.142;2023-03-19T00:46:11;12.10;99.90
46438;DHT22;32137;48.728;9.142;2023-03-19T00:48:37;12.10;99.90
46438;DHT22;32137;48.728;9.142;2023-03-19T00:51:04;12.10;99.90
46438;DHT22;32137;48.728;9.142;2023-03-19T00:53:31;12.10;99.90
46438;DHT22;32137;48.728;9.142;2023-03-19T00:55:56;12.10;99.90
46438;DHT22;32137;48.728;9.142;2023-03-19T00:58:22;12.00;99.90
46438;DHT22;32137;48.728;9.142;2023-03-19T01:00:50;12.10;99.90
46438;DHT22;32137;48.728;9.142;2023-03-19T01:03:16;12.20;99.90
46438;DHT22;32137;48.728;9.142;2023-03-19T01:05:41;12.10;99.90
46438;DHT22;32137;48.728;9.142;2023-03-19T01:08:07;12.10;99.90
46438;DHT22;32137;48.728;9.142;2023-03-19T01:10:33;12.10;99.90
46438;DHT22;32137;48.728;9.142;2023-03-19T01:12:59;12.10;99.90
46438;DHT22;32137;48.728;9.142;2023-03-19T01:15:24;12.10;99.90
46438;DHT22;32137;48.728;9.142;2023-03-19T01:17:50;12.00;99.90
46438;DHT22;32137;48.728;9.142;2023-03-19T01:20:16;12.00;99.90
46438;DHT22;32137;48.728;9.142;2023-03-19T01:22:44;12.00;99.90
46438;DHT22;32137;48.728;9.142;2023-03-19T01:25:11;12.00;99.90
46438;DHT22;32137;48.728;9.142;2023-03-19T01:27:38;12.00;99.90
46438;DHT22;32137;48.728;9.142;2023-03-19T01:30:05;12.00;99.90
46438;DHT22;32137;48.728;9.142;2023-03-19T01:32:31;12.00;99.90
46438;DHT22;32137;48.728;9.142;2023-03-19T01:34:57;12.00;99.90
46438;DHT22;32137;48.728;9.142;2023-03-19T01:37:23;12.00;99.90
46438;DHT22;32137;48.728;9.142;2023-03-19T01:39:49;12.00;99.90
46438;DHT22;32137;48.728;9.142;2023-03-19T01:42:14;11.90;99.90
46438;DHT22;32137;48.728;9.142;2023-03-19T01:44:41;11.90;99.90
46438;DHT22;32137;48.728;9.142;2023-03-19T01:47:15;12.00;99.90
46438;DHT22;32137;48.728;9.142;2023-03-19T01:49:41;12.00;99.90
46438;DHT22;32137;48.728;9.142;2023-03-19T01:52:10;11.90;99.90
46438;DHT22;32137;48.728;9.142;2023-03-19T01:54:36;11.80;99.90
46438;DHT22;32137;48.728;9.142;2023-03-19T01:57:07;11.80;99.90
46438;DHT22;32137;48.728;9.142;2023-03-19T01:59:45;11.70;99.90
46438;DHT22;32137;48.728;9.142;2023-03-19T02:02:30;11.60;99.90
46438;DHT22;32137;48.728;9.142;2023-03-19T02:05:00;11.60;99.90
46438;DHT22;32137;48.728;9.142;2023-03-19T02:07:29;11.60;99.90
46438;DHT22;32137;48.728;9.142;2023-03-19T02:09:56;11.30;99.90
46438;DHT22;32137;48.728;9.142;2023-03-19T02:12:22;10.80;1.00
46438;DHT22;32137;48.728;9.142;2023-03-19T02:14:48;10.30;99.90
46438;DHT22;32137;48.728;9.142;2023-03-19T02:17:13;10.10;67.40
46438;DHT22;32137;48.728;9.142;2023-03-19T02:20:29;9.90;99.90
46438;DHT22;32137;48.728;9.142;2023-03-19T02:22:29;10.00;99.90
46438;DHT22;32137;48.728;9.142;2023-03-19T02:25:01;9.90;12.60
46438;DHT22;32137;48.728;9.142;2023-03-19T02:27:27;10.10;1.00
46438;DHT22;32137;48.728;9.142;2023-03-19T02:29:53;10.10;99.90
46438;DHT22;32137;48.728;9.142;2023-03-19T02:32:18;10.30;99.90
46438;DHT22;32137;48.728;9.142;2023-03-19T02:34:44;10.50;99.90
46438;DHT22;32137;48.728;9.142;2023-03-19T02:37:23;10.60;99.90
46438;DHT22;32137;48.728;9.142;2023-03-19T02:39:52;10.60;99.90
46438;DHT22;32137;48.728;9.142;2023-03-19T02:42:20;10.60;99.90
46438;DHT22;32137;48.728;9.142;2023-03-19T02:44:46;10.60;99.90
46438;DHT22;32137;48.728;9.142;2023-03-19T02:47:12;10.50;99.90
46438;DHT22;32137;48.728;9.142;2023-03-19T02:49:38;10.70;99.90
46438;DHT22;32137;48.728;9.142;2023-03-19T02:52:04;10.60;99.90
46438;DHT22;32137;48.728;9.142;2023-03-19T02:54:30;10.70;99.90
46438;DHT22;32137;48.728;9.142;2023-03-19T02:56:55;10.70;99.90
46438;DHT22;32137;48.728;9.142;2023-03-19T02:59:21;10.50;99.90
46438;DHT22;32137;48.728;9.142;2023-03-19T03:01:46;10.60;99.90
46438;DHT22;32137;48.728;9.142;2023-03-19T03:04:12;10.60;99.90
46438;DHT22;32137;48.728;9.142;2023-03-19T03:06:41;10.50;99.90
46438;DHT22;32137;48.728;9.142;2023-03-19T03:09:06;10.60;99.90
46438;DHT22;32137;48.728;9.142;2023-03-19T03:11:32;10.60;99.90
46438;DHT22;32137;48.728;9.142;2023-03-19T03:13:58;10.60;99.90
46438;DHT22;32137;48.728;9.142;2023-03-19T03:16:24;10.60;99.90
46438;DHT22;32137;48.728;9.142;2023-03-19T03:18:50;10.50;99.90
46438;DHT22;32137;48.728;9.142;2023-03-19T03:21:15;10.30;99.90
46438;DHT22;32137;48.728;9.142;2023-03-19T03:23:44;10.30;99.90
46438;DHT22;32137;48.728;9.142;2023-03-19T03:26:10;10.30;99.90
46438;DHT22;32137;48.728;9.142;2023-03-19T03:28:36;10.30;99.90
46438;DHT22;32137;48.728;9.142;2023-03-19T03:31:01;10.20;99.90
46438;DHT22;32137;48.728;9.142;2023-03-19T03:33:28;10.30;99.90
46438;DHT22;32137;48.728;9.142;2023-03-19T03:35:53;10.20;99.90
46438;DHT22;32137;48.728;9.142;2023-03-19T03:38:19;10.10;99.90
46438;DHT22;32137;48.728;9.142;2023-03-19T03:40:49;10.10;99.90
46438;DHT22;32137;48.728;9.142;2023-03-19T03:43:15;10.00;99.90
46438;DHT22;32137;48.728;9.142;2023-03-19T03:45:43;10.10;99.90
46438;DHT22;32137;48.728;9.142;2023-03-19T03:48:08;10.10;99.90
46438;DHT22;32137;48.728;9.142;2023-03-19T03:50:34;10.00;99.90
46438;DHT22;32137;48.728;9.142;2023-03-19T03:53:00;10.00;99.90
46438;DHT22;32137;48.728;9.142;2023-03-19T03:55:26;10.00;99.90
46438;DHT22;32137;48.728;9.142;2023-03-19T03:57:52;9.90;99.90
46438;DHT22;32137;48.728;9.142;2023-03-19T04:00:18;10.00;99.90
46438;DHT22;32137;48.728;9.142;2023-03-19T04:02:44;9.80;99.90
46438;DHT22;32137;48.728;9.142;2023-03-19T04:05:10;9.90;94.70
46438;DHT22;32137;48.728;9.142;2023-03-19T04:07:36;9.90;80.30
46438;DHT22;32137;48.728;9.142;2023-03-19T04:10:03;9.70;76.30
46438;DHT22;32137;48.728;9.142;2023-03-19T04:12:30;9.70;68.60
46438;DHT22;32137;48.728;9.142;2023-03-19T04:14:55;9.70;53.20
46438;DHT22;32137;48.728;9.142;2023-03-19T04:17:21;9.80;42.70
46438;DHT22;32137;48.728;9.142;2023-03-19T04:19:48;9.70;38.10
46438;DHT22;32137;48.728;9.142;2023-03-19T04:22:13;9.70;34.50
46438;DHT22;32137;48.728;9.142;2023-03-19T04:24:40;9.70;31.40
46438;DHT22;32137;48.728;9.142;2023-03-19T04:27:06;9.80;21.50
46438;DHT22;32137;48.728;9.142;2023-03-19T04:29:32;9.70;12.70
46438;DHT22;32137;48.728;9.142;2023-03-19T04:31:57;9.70;8.70
46438;DHT22;32137;48.728;9.142;2023-03-19T04:34:23;9.70;5.50
46438;DHT22;32137;48.728;9.142;2023-03-19T04:36:49;9.70;1.10
46438;DHT22;32137;48.728;9.142;2023-03-19T04:39:16;9.60;1.00
46438;DHT22;32137;48.728;9.142;2023-03-19T04:41:42;9.60;1.00
46438;DHT22;32137;48.728;9.142;2023-03-19T04:44:08;9.60;1.00
46438;DHT22;32137;48.728;9.142;2023-03-19T04:46:34;9.60;1.00
46438;DHT22;32137;48.728;9.142;2023-03-19T04:48:59;9.70;1.00
46438;DHT22;32137;48.728;9.142;2023-03-19T04:51:25;9.60;1.00
46438;DHT22;32137;48.728;9.142;2023-03-19T04:53:51;9.50;1.00
46438;DHT22;32137;48.728;9.142;2023-03-19T04:56:17;9.50;1.00
46438;DHT22;32137;48.728;9.142;2023-03-19T04:58:43;9.60;1.00
46438;DHT22;32137;48.728;9.142;2023-03-19T05:01:09;9.60;1.00
46438;DHT22;32137;48.728;9.142;2023-03-19T05:03:34;9.50;1.00
46438;DHT22;32137;48.728;9.142;2023-03-19T05:06:00;9.60;1.00
46438;DHT22;32137;48.728;9.142;2023-03-19T05:08:26;9.60;1.00
46438;DHT22;32137;48.728;9.142;2023-03-19T05:10:51;9.40;1.00
46438;DHT22;32137;48.728;9.142;2023-03-19T05:13:17;9.60;1.00
46438;DHT22;32137;48.728;9.142;2023-03-19T05:15:44;9.50;1.00
46438;DHT22;32137;48.728;9.142;2023-03-19T05:18:11;9.50;1.00
46438;DHT22;32137;48.728;9.142;2023-03-19T05:20:37;9.40;1.00
46438;DHT22;32137;48.728;9.142;2023-03-19T05:23:04;9.40;1.00
46438;DHT22;32137;48.728;9.142;2023-03-19T05:25:29;9.40;1.00
46438;DHT22;32137;48.728;9.142;2023-03-19T05:27:55;9.40;1.00
46438;DHT22;32137;48.728;9.142;2023-03-19T05:30:21;9.30;1.00
46438;DHT22;32137;48.728;9.142;2023-03-19T05:32:48;9.40;1.00
46438;DHT22;32137;48.728;9.142;2023-03-19T05:35:14;9.30;1.00
46438;DHT22;32137;48.728;9.142;2023-03-19T05:37:41;9.40;1.00
46438;DHT22;32137;48.728;9.142;2023-03-19T05:40:07;9.40;1.00
46438;DHT22;32137;48.728;9.142;2023-03-19T05:42:33;9.40;1.00
46438;DHT22;32137;48.728;9.142;2023-03-19T05:44:59;9.40;1.00
46438;DHT22;32137;48.728;9.142;2023-03-19T05:47:25;9.40;99.90
46438;DHT22;32137;48.728;9.142;2023-03-19T05:49:51;9.30;99.90
46438;DHT22;32137;48.728;9.142;2023-03-19T05:52:16;9.40;99.90
46438;DHT22;32137;48.728;9.142;2023-03-19T05:54:42;9.40;99.90
46438;DHT22;32137;48.728;9.142;2023-03-19T05:57:08;9.30;99.90
46438;DHT22;32137;48.728;9.142;2023-03-19T05:59:33;9.40;99.90
46438;DHT22;32137;48.728;9.142;2023-03-19T06:01:59;9.40;99.90
46438;DHT22;32137;48.728;9.142;2023-03-19T06:04:24;9.40;99.90
46438;DHT22;32137;48.728;9.142;2023-03-19T06:06:50;9.40;99.90
46438;DHT22;32137;48.728;9.142;2023-03-19T06:09:16;9.40;99.90
46438;DHT22;32137;48.728;9.142;2023-03-19T06:11:42;9.40;99.90
46438;DHT22;32137;48.728;9.142;2023-03-19T06:14:07;9.30;99.90
46438;DHT22;32137;48.728;9.142;2023-03-19T06:16:33;9.30;99.90
46438;DHT22;32137;48.728;9.142;2023-03-19T06:18:58;9.30;99.90
46438;DHT22;32137;48.728;9.142;2023-03-19T06:21:24;9.30;99.90
46438;DHT22;32137;48.728;9.142;2023-03-19T06:23:56;9.30;99.90
46438;DHT22;32137;48.728;9.142;2023-03-19T06:26:22;9.40;99.90
46438;DHT22;32137;48.728;9.142;2023-03-19T06:28:48;9.30;99.90
46438;DHT22;32137;48.728;9.142;2023-03-19T06:31:13;9.40;99.90
46438;DHT22;32137;48.728;9.142;2023-03-19T06:33:40;9.40;99.90
46438;DHT22;32137;48.728;9.142;2023-03-19T06:36:06;9.40;99.90
46438;DHT22;32137;48.728;9.142;2023-03-19T06:38:32;9.50;99.90
46438;DHT22;32137;48.728;9.142;2023-03-19T06:40:58;9.50;99.90
46438;DHT22;32137;48.728;9.142;2023-03-19T06:43:23;9.50;99.90
46438;DHT22;32137;48.728;9.142;2023-03-19T06:45:49;9.50;99.90
46438;DHT22;32137;48.728;9.142;2023-03-19T06:48:14;9.50;99.90
46438;DHT22;32137;48.728;9.142;2023-03-19T06:50:40;9.50;99.90
46438;DHT22;32137;48.728;9.142;2023-03-19T06:53:06;9.50;99.90
46438;DHT22;32137;48.728;9.142;2023-03-19T06:55:32;9.40;99.90
46438;DHT22;32137;48.728;9.142;2023-03-19T06:57:57;9.40;99.90
46438;DHT22;32137;48.728;9.142;2023-03-19T07:00:23;9.50;88.10
46438;DHT22;32137;48.728;9.142;2023-03-19T07:02:49;9.50;65.50
46438;DHT22;32137;48.728;9.142;2023-03-19T07:05:15;9.50;33.60
46438;DHT22;32137;48.728;9.142;2023-03-19T07:07:41;9.60;34.20
46438;DHT22;32137;48.728;9.142;2023-03-19T07:10:07;9.60;1.00
46438;DHT22;32137;48.728;9.142;2023-03-19T07:12:33;9.50;1.00
46438;DHT22;32137;48.728;9.142;2023-03-19T07:14:58;9.50;1.00
46438;DHT22;32137;48.728;9.142;2023-03-19T07:17:24;9.50;99.90
46438;DHT22;32137;48.728;9.142;2023-03-19T07:19:50;9.50;99.90
46438;DHT22;32137;48.728;9.142;2023-03-19T07:22:16;9.50;99.90
46438;DHT22;32137;48.728;9.142;2023-03-19T07:24:42;9.50;66.70
46438;DHT22;32137;48.728;9.142;2023-03-19T07:27:08;9.50;1.00
46438;DHT22;32137;48.728;9.142;2023-03-19T07:29:34;9.50;1.00
46438;DHT22;32137;48.728;9.142;2023-03-19T07:31:59;9.50;99.90
46438;DHT22;32137;48.728;9.142;2023-03-19T07:34:25;9.60;1.00
46438;DHT22;32137;48.728;9.142;2023-03-19T07:36:51;9.60;99.90
46438;DHT22;32137;48.728;9.142;2023-03-19T07:39:18;9.70;99.90
46438;DHT22;32137;48.728;9.142;2023-03-19T07:41:43;9.70;99.90
46438;DHT22;32137;48.728;9.142;2023-03-19T07:44:11;9.70;99.90
46438;DHT22;32137;48.728;9.142;2023-03-19T07:46:37;9.70;90.30
46438;DHT22;32137;48.728;9.142;2023-03-19T07:49:03;9.80;42.90
46438;DHT22;32137;48.728;9.142;2023-03-19T07:51:28;9.80;1.00
46438;DHT22;32137;48.728;9.142;2023-03-19T07:53:54;9.80;1.00
46438;DHT22;32137;48.728;9.142;2023-03-19T07:56:19;9.80;1.00
46438;DHT22;32137;48.728;9.142;2023-03-19T07:58:45;9.90;1.00
46438;DHT22;32137;48.728;9.142;2023-03-19T08:01:10;10.00;1.00
46438;DHT22;32137;48.728;9.142;2023-03-19T08:03:36;10.00;1.00
46438;DHT22;32137;48.728;9.142;2023-03-19T08:06:03;10.10;99.90
46438;DHT22;32137;48.728;9.142;2023-03-19T08:08:28;10.10;99.90
46438;DHT22;32137;48.728;9.142;2023-03-19T08:10:54;10.20;99.90
46438;DHT22;32137;48.728;9.142;2023-03-19T08:13:20;10.20;99.90
46438;DHT22;32137;48.728;9.142;2023-03-19T08:15:45;10.20;99.90
46438;DHT22;32137;48.728;9.142;2023-03-19T08:18:11;10.30;99.90
46438;DHT22;32137;48.728;9.142;2023-03-19T08:20:36;10.30;99.90
46438;DHT22;32137;48.728;9.142;2023-03-19T08:23:02;10.30;99.90
46438;DHT22;32137;48.728;9.142;2023-03-19T08:25:28;10.40;99.90
46438;DHT22;32137;48.728;9.142;2023-03-19T08:27:57;10.50;98.50
46438;DHT22;32137;48.728;9.142;2023-03-19T08:30:22;10.50;99.90
46438;DHT22;32137;48.728;9.142;2023-03-19T08:32:48;10.60;99.90
46438;DHT22;32137;48.728;9.142;2023-03-19T08:35:14;10.60;1.00
46438;DHT22;32137;48.728;9.142;2023-03-19T08:37:40;10.70;1.00
46438;DHT22;32137;48.728;9.142;2023-03-19T08:40:06;10.70;1.00
46438;DHT22;32137;48.728;9.142;2023-03-19T08:42:32;10.80;1.00
46438;DHT22;32137;48.728;9.142;2023-03-19T08:44:58;10.90;1.00
46438;DHT22;32137;48.728;9.142;2023-03-19T08:47:24;11.00;1.00
46438;DHT22;32137;48.728;9.142;2023-03-19T08:49:50;11.10;1.00
46438;DHT22;32137;48.728;9.142;2023-03-19T08:52:17;11.10;1.00
46438;DHT22;32137;48.728;9.142;2023-03-19T08:54:43;11.20;1.00
46438;DHT22;32137;48.728;9.142;2023-03-19T08:57:08;11.20;99.90
46438;DHT22;32137;48.728;9.142;2023-03-19T08:59:34;11.30;99.90
46438;DHT22;32137;48.728;9.142;2023-03-19T09:02:00;11.40;99.90
46438;DHT22;32137;48.728;9.142;2023-03-19T09:04:25;11.50;99.90
46438;DHT22;32137;48.728;9.142;2023-03-19T09:06:51;11.60;99.90
46438;DHT22;32137;48.728;9.142;2023-03-19T09:09:18;11.60;99.90
46438;DHT22;32137;48.728;9.142;2023-03-19T09:11:44;11.70;99.90
46438;DHT22;32137;48.728;9.142;2023-03-19T09:14:10;11.70;99.90
46438;DHT22;32137;48.728;9.142;2023-03-19T09:16:36;11.80;99.90
46438;DHT22;32137;48.728;9.142;2023-03-19T09:19:02;11.90;99.90
46438;DHT22;32137;48.728;9.142;2023-03-19T09:21:28;11.90;99.90
46438;DHT22;32137;48.728;9.142;2023-03-19T09:23:53;12.00;99.90
46438;DHT22;32137;48.728;9.142;2023-03-19T09:26:19;12.00;99.90
46438;DHT22;32137;48.728;9.142;2023-03-19T09:28:45;12.00;99.90
46438;DHT22;32137;48.728;9.142;2023-03-19T09:31:10;12.10;99.90
46438;DHT22;32137;48.728;9.142;2023-03-19T09:33:36;12.20;99.90
46438;DHT22;32137;48.728;9.142;2023-03-19T09:36:02;12.30;99.90
46438;DHT22;32137;48.728;9.142;2023-03-19T09:38:28;12.30;99.90
46438;DHT22;32137;48.728;9.142;2023-03-19T09:41:09;12.30;99.90
46438;DHT22;32137;48.728;9.142;2023-03-19T09:46:36;12.10;99.90
46438;DHT22;32137;48.728;9.142;2023-03-19T09:49:13;12.00;99.90
46438;DHT22;32137;48.728;9.142;2023-03-19T09:51:46;12.10;99.90
46438;DHT22;32137;48.728;9.142;2023-03-19T09:54:31;12.10;99.90
46438;DHT22;32137;48.728;9.142;2023-03-19T09:56:58;12.10;99.90
46438;DHT22;32137;48.728;9.142;2023-03-19T09:59:25;12.20;99.90
46438;DHT22;32137;48.728;9.142;2023-03-19T10:05:08;12.30;99.90
46438;DHT22;32137;48.728;9.142;2023-03-19T10:10:37;12.40;99.90
46438;DHT22;32137;48.728;9.142;2023-03-19T10:13:17;12.40;99.90
46438;DHT22;32137;48.728;9.142;2023-03-19T10:15:49;12.50;99.90
46438;DHT22;32137;48.728;9.142;2023-03-19T10:18:27;12.60;99.90
46438;DHT22;32137;48.728;9.142;2023-03-19T10:26:19;12.80;99.90
46438;DHT22;32137;48.728;9.142;2023-03-19T10:28:55;12.90;94.10
46438;DHT22;32137;48.728;9.142;2023-03-19T10:31:27;13.00;75.20
46438;DHT22;32137;48.728;9.142;2023-03-19T10:34:06;13.10;50.20
46438;DHT22;32137;48.728;9.142;2023-03-19T10:36:35;13.30;53.40
46438;DHT22;32137;48.728;9.142;2023-03-19T10:39:02;13.40;22.70
46438;DHT22;32137;48.728;9.142;2023-03-19T10:44:02;13.40;22.50
46438;DHT22;32137;48.728;9.142;2023-03-19T10:46:38;13.50;14.30
46438;DHT22;32137;48.728;9.142;2023-03-19T10:49:09;13.70;7.20
46438;DHT22;32137;48.728;9.142;2023-03-19T10:51:35;13.90;1.00
46438;DHT22;32137;48.728;9.142;2023-03-19T10:54:18;14.10;1.00
46438;DHT22;32137;48.728;9.142;2023-03-19T10:56:44;14.10;1.00
46438;DHT22;32137;48.728;9.142;2023-03-19T10:59:22;14.30;1.00
46438;DHT22;32137;48.728;9.142;2023-03-19T11:01:48;14.30;1.00
46438;DHT22;32137;48.728;9.142;2023-03-19T11:04:19;14.30;1.00
46438;DHT22;32137;48.728;9.142;2023-03-19T11:06:50;14.40;1.00
46438;DHT22;32137;48.728;9.142;2023-03-19T11:09:32;14.60;1.00
46438;DHT22;32137;48.728;9.142;2023-03-19T11:12:07;14.70;1.00
46438;DHT22;32137;48.728;9.142;2023-03-19T11:14:41;14.90;1.00
46438;DHT22;32137;48.728;9.142;2023-03-19T11:17:24;15.00;1.00
46438;DHT22;32137;48.728;9.142;2023-03-19T11:19:55;15.20;1.00
46438;DHT22;32137;48.728;9.142;2023-03-19T11:22:31;15.30;1.00
46438;DHT22;32137;48.728;9.142;2023-03-19T11:25:09;15.30;1.00
46438;DHT22;32137;48.728;9.142;2023-03-19T11:27:38;15.40;1.00
46438;DHT22;32137;48.728;9.142;2023-03-19T11:30:12;15.40;1.00
46438;DHT22;32137;48.728;9.142;2023-03-19T11:33:13;15.50;1.00
46438;DHT22;32137;48.728;9.142;2023-03-19T11:39:05;15.60;1.00
46438;DHT22;32137;48.728;9.142;2023-03-19T11:45:01;15.70;1.00
46438;DHT22;32137;48.728;9.142;2023-03-19T11:55:59;16.10;1.00
46438;DHT22;32137;48.728;9.142;2023-03-19T12:11:52;16.90;1.00
46438;DHT22;32137;48.728;9.142;2023-03-19T12:14:52;16.90;1.00
46438;DHT22;32137;48.728;9.142;2023-03-19T12:17:28;16.90;1.00
46438;DHT22;32137;48.728;9.142;2023-03-19T12:20:23;16.90;1.00
46438;DHT22;32137;48.728;9.142;2023-03-19T12:23:04;16.90;1.00
46438;DHT22;32137;48.728;9.142;2023-03-19T12:28:28;17.50;1.00
46438;DHT22;32137;48.728;9.142;2023-03-19T12:33:59;18.00;1.00
46438;DHT22;32137;48.728;9.142;2023-03-19T12:36:29;17.60;1.00
46438;DHT22;32137;48.728;9.142;2023-03-19T12:39:11;17.60;1.00
46438;DHT22;32137;48.728;9.142;2023-03-19T12:41:41;18.60;1.00
46438;DHT22;32137;48.728;9.142;2023-03-19T12:44:31;19.60;1.00
46438;DHT22;32137;48.728;9.142;2023-03-19T12:47:21;19.70;1.00
46438;DHT22;32137;48.728;9.142;2023-03-19T12:50:10;19.90;1.00
46438;DHT22;32137;48.728;9.142;2023-03-19T12:52:42;20.50;1.00
46438;DHT22;32137;48.728;9.142;2023-03-19T12:55:21;19.90;1.00
46438;DHT22;32137;48.728;9.142;2023-03-19T12:57:54;18.90;1.00
46438;DHT22;32137;48.728;9.142;2023-03-19T13:00:29;18.20;1.00
46438;DHT22;32137;48.728;9.142;2023-03-19T13:03:22;17.60;1.00
46438;DHT22;32137;48.728;9.142;2023-03-19T13:05:58;17.10;1.00
46438;DHT22;32137;48.728;9.142;2023-03-19T13:11:28;16.40;1.00
46438;DHT22;32137;48.728;9.142;2023-03-19T13:14:13;16.00;1.00
46438;DHT22;32137;48.728;9.142;2023-03-19T13:16:52;15.70;1.00
46438;DHT22;32137;48.728;9.142;2023-03-19T13:21:58;15.40;1.00
46438;DHT22;32137;48.728;9.142;2023-03-19T13:24:33;15.40;1.00
46438;DHT22;32137;48.728;9.142;2023-03-19T13:26:59;15.50;1.00
46438;DHT22;32137;48.728;9.142;2023-03-19T13:29:30;15.60;1.00
46438;DHT22;32137;48.728;9.142;2023-03-19T13:32:41;15.70;1.00
46438;DHT22;32137;48.728;9.142;2023-03-19T13:35:29;16.00;1.00
46438;DHT22;32137;48.728;9.142;2023-03-19T13:40:50;16.90;1.00
46438;DHT22;32137;48.728;9.142;2023-03-19T13:43:39;17.00;1.00
46438;DHT22;32137;48.728;9.142;2023-03-19T13:48:38;16.60;1.00
46438;DHT22;32137;48.728;9.142;2023-03-19T13:54:14;16.00;1.00
46438;DHT22;32137;48.728;9.142;2023-03-19T13:59:36;15.90;1.00
46438;DHT22;32137;48.728;9.142;2023-03-19T14:05:06;16.20;1.00
46438;DHT22;32137;48.728;9.142;2023-03-19T14:07:39;16.20;1.00
46438;DHT22;32137;48.728;9.142;2023-03-19T14:10:27;16.10;1.00
46438;DHT22;32137;48.728;9.142;2023-03-19T14:13:17;16.00;1.00
46438;DHT22;32137;48.728;9.142;2023-03-19T14:15:48;16.00;1.00
46438;DHT22;32137;48.728;9.142;2023-03-19T14:18:17;15.90;1.00
46438;DHT22;32137;48.728;9.142;2023-03-19T14:20:49;15.90;1.00
46438;DHT22;32137;48.728;9.142;2023-03-19T14:23:24;15.90;1.00
46438;DHT22;32137;48.728;9.142;2023-03-19T14:25:51;15.90;1.00
46438;DHT22;32137;48.728;9.142;2023-03-19T14:28:22;16.00;1.00
46438;DHT22;32137;48.728;9.142;2023-03-19T14:30:48;16.00;1.00
46438;DHT22;32137;48.728;9.142;2023-03-19T14:33:25;16.10;1.00
46438;DHT22;32137;48.728;9.142;2023-03-19T14:35:52;16.00;1.00
46438;DHT22;32137;48.728;9.142;2023-03-19T14:38:31;16.00;1.00
46438;DHT22;32137;48.728;9.142;2023-03-19T14:41:01;15.90;1.00
46438;DHT22;32137;48.728;9.142;2023-03-19T14:52:31;15.70;1.00
46438;DHT22;32137;48.728;9.142;2023-03-19T14:55:06;15.60;1.00
46438;DHT22;32137;48.728;9.142;2023-03-19T14:57:34;15.60;1.00
46438;DHT22;32137;48.728;9.142;2023-03-19T15:00:00;15.50;1.00
46438;DHT22;32137;48.728;9.142;2023-03-19T15:02:49;15.40;1.00
46438;DHT22;32137;48.728;9.142;2023-03-19T15:05:27;15.30;1.00
46438;DHT22;32137;48.728;9.142;2023-03-19T15:07:58;15.20;1.00
46438;DHT22;32137;48.728;9.142;2023-03-19T15:10:34;15.20;1.00
46438;DHT22;32137;48.728;9.142;2023-03-19T15:13:15;15.10;1.00
46438;DHT22;32137;48.728;9.142;2023-03-19T15:15:56;15.10;1.00
46438;DHT22;32137;48.728;9.142;2023-03-19T15:18:25;15.10;1.00
46438;DHT22;32137;48.728;9.142;2023-03-19T15:20:52;15.10;1.00
46438;DHT22;32137;48.728;9.142;2023-03-19T15:23:24;15.00;1.00
46438;DHT22;32137;48.728;9.142;2023-03-19T15:25:59;15.00;1.00
46438;DHT22;32137;48.728;9.142;2023-03-19T15:28:29;15.00;1.00
46438;DHT22;32137;48.728;9.142;2023-03-19T15:31:05;15.00;1.00
46438;DHT22;32137;48.728;9.142;2023-03-19T15:33:33;14.90;1.00
46438;DHT22;32137;48.728;9.142;2023-03-19T15:41:09;14.80;1.00
46438;DHT22;32137;48.728;9.142;2023-03-19T15:43:37;14.70;1.00
46438;DHT22;32137;48.728;9.142;2023-03-19T15:46:05;14.60;1.00
46438;DHT22;32137;48.728;9.142;2023-03-19T15:48:43;14.50;1.00
46438;DHT22;32137;48.728;9.142;2023-03-19T15:51:11;14.50;1.00
46438;DHT22;32137;48.728;9.142;2023-03-19T15:53:39;14.40;1.00
46438;DHT22;32137;48.728;9.142;2023-03-19T15:56:05;14.30;1.00
46438;DHT22;32137;48.728;9.142;2023-03-19T15:58:37;14.20;1.00
46438;DHT22;32137;48.728;9.142;2023-03-19T16:01:06;14.10;1.00
46438;DHT22;32137;48.728;9.142;2023-03-19T16:03:38;14.00;1.00
46438;DHT22;32137;48.728;9.142;2023-03-19T16:06:51;13.90;1.00
46438;DHT22;32137;48.728;9.142;2023-03-19T16:08:52;13.80;1.00
46438;DHT22;32137;48.728;9.142;2023-03-19T16:11:37;13.80;1.00
46438;DHT22;32137;48.728;9.142;2023-03-19T16:17:00;13.50;40.70
46438;DHT22;32137;48.728;9.142;2023-03-19T16:19:46;13.40;64.40
46438;DHT22;32137;48.728;9.142;2023-03-19T16:22:16;13.30;99.90
46438;DHT22;32137;48.728;9.142;2023-03-19T16:24:45;13.30;99.90
46438;DHT22;32137;48.728;9.142;2023-03-19T16:27:16;13.20;99.90
46438;DHT22;32137;48.728;9.142;2023-03-19T16:29:57;13.10;99.90
46438;DHT22;32137;48.728;9.142;2023-03-19T16:32:25;13.00;99.90
46438;DHT22;32137;48.728;9.142;2023-03-19T16:34:56;12.90;99.90
46438;DHT22;32137;48.728;9.142;2023-03-19T16:47:51;12.40;99.90
46438;DHT22;32137;48.728;9.142;2023-03-19T16:50:20;12.30;99.90
46438;DHT22;32137;48.728;9.142;2023-03-19T16:52:47;12.30;99.90
46438;DHT22;32137;48.728;9.142;2023-03-19T16:55:30;12.30;99.90
46438;DHT22;32137;48.728;9.142;2023-03-19T16:58:16;12.30;99.90
46438;DHT22;32137;48.728;9.142;2023-03-19T17:00:43;12.30;99.90
46438;DHT22;32137;48.728;9.142;2023-03-19T17:03:12;12.30;99.90
46438;DHT22;32137;48.728;9.142;2023-03-19T17:05:38;12.20;99.90
46438;DHT22;32137;48.728;9.142;2023-03-19T17:08:03;12.20;99.90
46438;DHT22;32137;48.728;9.142;2023-03-19T17:10:37;12.20;99.90
46438;DHT22;32137;48.728;9.142;2023-03-19T17:13:04;12.20;99.90
46438;DHT22;32137;48.728;9.142;2023-03-19T17:15:38;12.20;99.90
46438;DHT22;32137;48.728;9.142;2023-03-19T17:18:24;12.10;99.90
46438;DHT22;32137;48.728;9.142;2023-03-19T17:20:51;12.10;99.90
46438;DHT22;32137;48.728;9.142;2023-03-19T17:23:18;12.10;99.90
46438;DHT22;32137;48.728;9.142;2023-03-19T17:25:44;12.10;99.90
46438;DHT22;32137;48.728;9.142;2023-03-19T17:28:10;12.00;99.90
46438;DHT22;32137;48.728;9.142;2023-03-19T17:30:37;12.10;99.90
46438;DHT22;32137;48.728;9.142;2023-03-19T17:33:03;12.00;99.90